Time;durP1;ratioP1;P1;durP2;ratioP2;P2;SDS_P1;SDS_P2;PMS_P1;PMS_P2;Temp;Humidity;BMP_temperature;BMP_pressure;BME280_temperature;BME280_humidity;BME280_pressure;Samples;Min_cycle;Max_cycle;Signal;HPM_P1;HPM_P2
2023/04/06 00:00:07;;;;;;;10.13;6.28;;;4.60;99.90;;;;;;4993704;28;20037;-88
2023/04/06 00:02:34;;;;;;;10.48;5.82;;;4.50;99.90;;;;;;5005126;28;20188;-89
2023/04/06 00:05:00;;;;;;;11.40;5.75;;;4.50;99.90;;;;;;4990813;28;20490;-89
2023/04/06 00:07:28;;;;;;;9.45;6.18;;;4.50;99.90;;;;;;4981526;28;20378;-90
2023/04/06 00:09:59;;;;;;;8.63;5.40;;;4.50;99.90;;;;;;4985506;28;20037;-89
2023/04/06 00:12:26;;;;;;;8.75;5.55;;;4.50;99.90;;;;;;4985397;28;20037;-88
2023/04/06 00:14:55;;;;;;;9.85;5.85;;;4.40;99.90;;;;;;4985400;28;20068;-88
2023/04/06 00:17:28;;;;;;;9.30;6.00;;;4.40;99.90;;;;;;4981893;28;20037;-88
2023/04/06 00:19:54;;;;;;;9.75;5.88;;;4.30;99.90;;;;;;5006423;28;20038;-87
2023/04/06 00:22:20;;;;;;;8.27;5.82;;;4.30;99.90;;;;;;4991467;28;20037;-87
2023/04/06 00:24:48;;;;;;;9.30;5.75;;;4.30;99.90;;;;;;5008026;28;20026;-87
2023/04/06 00:27:14;;;;;;;8.73;6.45;;;4.20;99.90;;;;;;4992051;28;20037;-87
2023/04/06 00:29:40;;;;;;;10.45;6.20;;;4.20;99.90;;;;;;4993211;28;20064;-89
2023/04/06 00:32:16;;;;;;;9.95;6.45;;;4.10;99.90;;;;;;4994114;28;20512;-89
2023/04/06 00:34:42;;;;;;;9.40;6.22;;;4.10;99.90;;;;;;4974204;28;20046;-88
2023/04/06 00:37:08;;;;;;;10.68;6.32;;;4.10;99.90;;;;;;4990462;28;20101;-87
2023/04/06 00:39:38;;;;;;;8.70;5.85;;;4.10;99.90;;;;;;4987008;28;20030;-89
2023/04/06 00:42:16;;;;;;;7.90;5.55;;;4.00;99.90;;;;;;5008880;28;20030;-87
2023/04/06 00:44:45;;;;;;;9.00;5.85;;;4.00;99.90;;;;;;4987939;28;20049;-88
2023/04/06 00:47:12;;;;;;;7.55;4.93;;;4.00;99.90;;;;;;5003863;28;20031;-88
2023/04/06 00:49:41;;;;;;;7.82;5.13;;;3.90;99.90;;;;;;4989901;28;20037;-88
2023/04/06 00:52:10;;;;;;;10.38;5.25;;;3.90;99.90;;;;;;4990530;28;20046;-89
2023/04/06 00:54:36;;;;;;;7.82;5.10;;;3.90;99.90;;;;;;5008623;28;20037;-88
2023/04/06 00:57:10;;;;;;;7.68;4.80;;;3.80;99.90;;;;;;4991835;28;20034;-88
2023/04/06 00:59:36;;;;;;;9.20;6.18;;;3.80;99.90;;;;;;4990222;28;20109;-88
2023/04/06 01:02:09;;;;;;;9.77;5.75;;;3.80;99.90;;;;;;4989592;28;20044;-88
2023/04/06 01:04:36;;;;;;;8.48;5.43;;;3.80;99.90;;;;;;4987364;28;20406;-87
2023/04/06 01:07:02;;;;;;;8.35;5.63;;;3.70;99.90;;;;;;4993289;28;20046;-88
2023/04/06 01:09:41;;;;;;;10.13;5.65;;;3.70;99.90;;;;;;4990978;28;20030;-88
2023/04/06 01:12:09;;;;;;;7.55;4.68;;;3.80;99.90;;;;;;5009817;28;20038;-88
2023/04/06 01:14:34;;;;;;;8.20;4.85;;;3.70;99.90;;;;;;4993461;28;20025;-88
2023/04/06 01:17:01;;;;;;;8.15;5.30;;;3.80;99.90;;;;;;4990820;28;20382;-87
2023/04/06 01:19:28;;;;;;;8.20;5.00;;;3.70;99.90;;;;;;5009428;28;20049;-87
2023/04/06 01:21:54;;;;;;;8.00;5.00;;;3.70;99.90;;;;;;4986757;28;20168;-88
2023/04/06 01:24:21;;;;;;;7.13;4.60;;;3.70;99.90;;;;;;5011499;28;20033;-87
2023/04/06 01:26:48;;;;;;;7.60;4.80;;;3.70;99.90;;;;;;4973866;28;20524;-88
2023/04/06 01:29:16;;;;;;;7.75;4.82;;;3.70;99.90;;;;;;4993837;28;20042;-88
2023/04/06 01:31:43;;;;;;;8.70;4.97;;;3.60;99.90;;;;;;4989595;28;21405;-88
2023/04/06 01:34:09;;;;;;;7.90;4.88;;;3.60;99.90;;;;;;4989588;28;20378;-89
2023/04/06 01:36:35;;;;;;;8.02;5.18;;;3.60;99.90;;;;;;4977659;28;20382;-90
2023/04/06 01:39:01;;;;;;;8.35;4.90;;;3.60;99.90;;;;;;4957833;28;20076;-88
2023/04/06 01:41:26;;;;;;;7.70;5.28;;;3.60;99.90;;;;;;4977404;28;20034;-88
2023/04/06 01:43:58;;;;;;;7.05;4.55;;;3.60;99.90;;;;;;4997317;28;20124;-89
2023/04/06 01:46:24;;;;;;;8.07;4.90;;;3.50;99.90;;;;;;4993652;28;20466;-88
2023/04/06 01:48:52;;;;;;;7.88;4.88;;;3.50;99.90;;;;;;5014410;28;20034;-88
2023/04/06 01:51:19;;;;;;;8.82;5.03;;;3.50;99.90;;;;;;4992936;28;20041;-88
2023/04/06 01:53:45;;;;;;;9.23;5.75;;;3.50;99.90;;;;;;5010966;28;20049;-89
2023/04/06 01:56:10;;;;;;;7.35;4.80;;;3.40;99.90;;;;;;4995489;28;20029;-88
2023/04/06 01:58:39;;;;;;;8.05;5.43;;;3.40;99.90;;;;;;4994787;28;20156;-89
2023/04/06 02:01:06;;;;;;;7.57;4.65;;;3.40;99.90;;;;;;4991406;28;20034;-89
2023/04/06 02:03:32;;;;;;;7.43;4.80;;;3.40;99.90;;;;;;4993611;28;20042;-89
2023/04/06 02:06:03;;;;;;;9.23;5.45;;;3.40;99.90;;;;;;5010729;28;20032;-89
2023/04/06 02:08:30;;;;;;;8.60;5.10;;;3.30;99.90;;;;;;4990671;28;20021;-89
2023/04/06 02:10:56;;;;;;;9.18;5.18;;;3.30;99.90;;;;;;4991713;28;20040;-89
2023/04/06 02:13:22;;;;;;;8.25;5.13;;;3.30;99.90;;;;;;5009836;28;20030;-87
2023/04/06 02:15:50;;;;;;;7.28;5.03;;;3.20;99.90;;;;;;5000236;28;20409;-87
2023/04/06 02:18:18;;;;;;;8.77;5.18;;;3.30;99.90;;;;;;5009445;28;20061;-87
2023/04/06 02:20:44;;;;;;;7.07;4.65;;;3.30;99.90;;;;;;4993683;28;20104;-88
2023/04/06 02:23:14;;;;;;;8.07;4.97;;;3.30;99.90;;;;;;4993190;28;20109;-88
2023/04/06 02:25:41;;;;;;;6.90;4.47;;;3.30;99.90;;;;;;5008773;28;20033;-88
2023/04/06 02:28:06;;;;;;;7.95;5.18;;;3.40;99.90;;;;;;4992267;28;20026;-87
2023/04/06 02:30:32;;;;;;;8.93;5.70;;;3.40;99.90;;;;;;4993783;28;20030;-87
2023/04/06 02:33:03;;;;;;;7.95;5.45;;;3.40;99.90;;;;;;4994980;28;20450;-88
2023/04/06 02:35:31;;;;;;;8.85;5.20;;;3.40;99.90;;;;;;5007149;28;20057;-88
2023/04/06 02:37:56;;;;;;;8.73;5.05;;;3.40;99.90;;;;;;4994807;28;20060;-88
2023/04/06 02:40:22;;;;;;;7.72;5.22;;;3.40;99.90;;;;;;4994471;28;20675;-88
2023/04/06 02:42:54;;;;;;;8.43;4.78;;;3.40;99.90;;;;;;5010534;28;20026;-89
2023/04/06 02:45:22;;;;;;;8.57;5.43;;;3.50;99.90;;;;;;4995173;28;20041;-88
2023/04/06 02:47:49;;;;;;;7.18;4.82;;;3.50;99.90;;;;;;5009047;28;20164;-89
2023/04/06 02:50:16;;;;;;;10.00;5.47;;;3.50;99.90;;;;;;4992057;28;20470;-88
2023/04/06 02:52:42;;;;;;;8.40;5.28;;;3.50;99.90;;;;;;4972556;28;20504;-88
2023/04/06 02:55:08;;;;;;;8.25;5.03;;;3.50;99.90;;;;;;4982989;28;20028;-88
2023/04/06 02:57:33;;;;;;;9.00;5.18;;;3.50;99.90;;;;;;5004500;28;20029;-89
2023/04/06 02:59:59;;;;;;;8.88;5.20;;;3.60;99.90;;;;;;4984658;28;20045;-89
2023/04/06 03:02:26;;;;;;;6.97;4.65;;;3.60;99.90;;;;;;5003972;28;20026;-88
2023/04/06 03:04:53;;;;;;;7.68;4.80;;;3.70;99.90;;;;;;5004255;28;20046;-88
2023/04/06 03:07:18;;;;;;;7.13;4.68;;;3.70;99.90;;;;;;4966101;28;20564;-87
2023/04/06 03:09:45;;;;;;;9.02;5.60;;;3.70;99.90;;;;;;5004400;28;20081;-89
2023/04/06 03:12:10;;;;;;;7.35;4.78;;;3.80;99.90;;;;;;4987768;28;20033;-88
2023/04/06 03:14:36;;;;;;;7.47;5.32;;;3.80;99.90;;;;;;4986533;28;20451;-88
2023/04/06 03:17:02;;;;;;;9.70;5.22;;;3.90;99.90;;;;;;4981794;28;20081;-88
2023/04/06 03:19:28;;;;;;;7.55;4.45;;;3.90;99.90;;;;;;4988107;28;20423;-88
2023/04/06 03:21:53;;;;;;;8.38;5.35;;;4.00;99.90;;;;;;4991239;28;20461;-88
2023/04/06 03:24:22;;;;;;;7.50;4.47;;;4.00;99.90;;;;;;4988051;28;20458;-88
2023/04/06 03:26:56;;;;;;;8.65;5.47;;;4.10;99.90;;;;;;4993897;28;20030;-88
2023/04/06 03:29:22;;;;;;;8.38;4.45;;;4.00;99.90;;;;;;4994759;28;20088;-87
2023/04/06 03:31:49;;;;;;;8.55;4.75;;;4.10;99.90;;;;;;5008042;28;20022;-88
2023/04/06 03:34:18;;;;;;;8.48;5.00;;;4.10;99.90;;;;;;4992798;28;20034;-87
2023/04/06 03:36:47;;;;;;;9.85;5.07;;;4.10;99.90;;;;;;4990130;28;20083;-87
2023/04/06 03:39:16;;;;;;;9.55;5.03;;;4.10;99.90;;;;;;4994530;28;20034;-89
2023/04/06 03:41:44;;;;;;;8.48;5.13;;;4.20;99.90;;;;;;4990687;28;20061;-89
2023/04/06 03:44:11;;;;;;;7.80;4.70;;;4.10;99.90;;;;;;4992302;28;20029;-89
2023/04/06 03:46:39;;;;;;;7.90;4.80;;;4.10;99.90;;;;;;4991795;28;20026;-89
2023/04/06 03:49:11;;;;;;;7.22;4.75;;;4.10;99.90;;;;;;4990335;28;20057;-90
2023/04/06 03:51:43;;;;;;;8.77;5.28;;;4.10;99.90;;;;;;5010004;28;20084;-89
2023/04/06 03:54:08;;;;;;;8.98;4.97;;;4.20;99.90;;;;;;4993132;28;20034;-89
2023/04/06 03:56:34;;;;;;;6.28;4.55;;;4.20;99.90;;;;;;4990969;28;20173;-88
2023/04/06 03:59:02;;;;;;;9.85;4.82;;;4.20;99.90;;;;;;4967384;28;20043;-87
2023/04/06 04:01:28;;;;;;;7.45;4.90;;;4.20;99.90;;;;;;4989648;28;20026;-88
2023/04/06 04:03:54;;;;;;;6.68;4.40;;;4.20;99.90;;;;;;4988265;28;20014;-88
2023/04/06 04:06:22;;;;;;;7.35;4.72;;;4.20;99.90;;;;;;4991131;28;20045;-88
2023/04/06 04:08:50;;;;;;;8.27;5.15;;;4.20;99.90;;;;;;4971198;28;20092;-88
2023/04/06 04:11:18;;;;;;;8.38;4.88;;;4.20;99.90;;;;;;4990795;28;20113;-90
2023/04/06 04:13:44;;;;;;;6.93;4.35;;;4.20;99.90;;;;;;4990582;28;20033;-87
2023/04/06 04:16:10;;;;;;;6.95;4.57;;;4.30;99.90;;;;;;4975256;28;20061;-87
2023/04/06 04:18:36;;;;;;;8.63;4.93;;;4.30;99.90;;;;;;4987649;28;20046;-87
2023/04/06 04:21:03;;;;;;;7.35;4.53;;;4.30;99.90;;;;;;4991671;28;20029;-87
2023/04/06 04:23:30;;;;;;;6.88;4.32;;;4.30;99.90;;;;;;4989537;28;20034;-88
2023/04/06 04:25:57;;;;;;;7.20;4.50;;;4.30;99.90;;;;;;4992139;28;20129;-89
2023/04/06 04:28:23;;;;;;;9.52;4.68;;;4.30;99.90;;;;;;4992671;28;20044;-88
2023/04/06 04:30:55;;;;;;;9.40;5.45;;;4.30;99.90;;;;;;4986915;28;20453;-88
2023/04/06 04:33:25;;;;;;;7.45;4.95;;;4.40;99.90;;;;;;5006220;28;20628;-87
2023/04/06 04:35:51;;;;;;;7.72;4.80;;;4.40;99.90;;;;;;4991884;28;20046;-87
2023/04/06 04:38:17;;;;;;;7.55;4.50;;;4.40;99.90;;;;;;4992212;28;20072;-86
2023/04/06 04:40:45;;;;;;;6.70;4.20;;;4.40;99.90;;;;;;4985549;28;20065;-87
2023/04/06 04:43:10;;;;;;;7.05;4.55;;;4.40;99.90;;;;;;5000078;28;20045;-87
2023/04/06 04:45:46;;;;;;;8.27;5.10;;;4.40;99.90;;;;;;5011033;28;20041;-87
2023/04/06 04:48:17;;;;;;;7.97;5.13;;;4.40;99.90;;;;;;4989503;28;20041;-88
2023/04/06 04:50:48;;;;;;;8.98;5.05;;;4.40;99.90;;;;;;5008727;28;20038;-87
2023/04/06 04:53:19;;;;;;;8.75;4.95;;;4.40;99.90;;;;;;4990722;28;20072;-88
2023/04/06 04:55:50;;;;;;;8.27;5.63;;;4.40;99.90;;;;;;5008485;28;20069;-88
2023/04/06 04:58:19;;;;;;;8.82;5.43;;;4.40;99.90;;;;;;5011269;28;20104;-88
2023/04/06 05:00:55;;;;;;;9.15;5.55;;;4.40;99.90;;;;;;4997232;28;20030;-89
2023/04/06 05:03:28;;;;;;;7.40;4.63;;;4.40;99.90;;;;;;4976780;28;20081;-89
2023/04/06 05:06:22;;;;;;;8.80;5.43;;;4.40;99.90;;;;;;4989026;28;20037;-89
2023/04/06 05:08:55;;;;;;;8.95;5.35;;;4.30;99.90;;;;;;4990619;28;20350;-89
2023/04/06 05:11:43;;;;;;;6.90;4.60;;;4.30;99.90;;;;;;5010908;28;20041;-89
2023/04/06 05:14:37;;;;;;;8.65;5.07;;;4.30;99.90;;;;;;4994716;28;20429;-89
2023/04/06 05:17:12;;;;;;;9.02;5.20;;;4.30;99.90;;;;;;4996182;28;20085;-90
2023/04/06 05:19:45;;;;;;;8.05;4.85;;;4.30;99.90;;;;;;4989027;28;20062;-89
2023/04/06 05:22:43;;;;;;;9.15;5.30;;;4.30;99.90;;;;;;4998532;28;20120;-88
2023/04/06 05:25:10;;;;;;;7.60;5.25;;;4.30;99.90;;;;;;4991990;28;20022;-90
2023/04/06 05:27:40;;;;;;;7.68;5.03;;;4.30;99.90;;;;;;4977404;28;20139;-89
2023/04/06 05:30:09;;;;;;;10.85;5.38;;;4.30;99.90;;;;;;4993073;28;20109;-89
2023/04/06 05:32:36;;;;;;;8.90;5.40;;;4.40;99.90;;;;;;4992219;28;20121;-88
2023/04/06 05:35:05;;;;;;;9.13;5.70;;;4.40;99.90;;;;;;4992878;28;20454;-88
2023/04/06 05:37:35;;;;;;;7.75;5.07;;;4.40;99.90;;;;;;4995241;28;20049;-88
2023/04/06 05:40:25;;;;;;;9.52;6.05;;;4.40;99.90;;;;;;5007851;28;20133;-88
2023/04/06 05:43:02;;;;;;;8.90;5.30;;;4.40;99.90;;;;;;5011767;28;20042;-87
2023/04/06 05:45:32;;;;;;;10.18;6.47;;;4.40;99.90;;;;;;4994914;28;20042;-88
2023/04/06 05:47:59;;;;;;;11.30;6.38;;;4.50;99.90;;;;;;4993373;28;20386;-87
2023/04/06 05:50:38;;;;;;;9.05;5.53;;;4.60;99.90;;;;;;5009750;28;20048;-86
2023/04/06 05:53:04;;;;;;;10.18;6.05;;;4.70;99.90;;;;;;4989167;28;20104;-87
2023/04/06 05:55:37;;;;;;;11.23;7.00;;;4.70;99.90;;;;;;4978440;28;20441;-87
2023/04/06 05:58:07;;;;;;;9.80;6.15;;;4.70;99.90;;;;;;5011398;28;20033;-87
2023/04/06 06:00:46;;;;;;;11.25;6.75;;;4.80;99.90;;;;;;4993726;28;20425;-88
2023/04/06 06:03:19;;;;;;;9.32;5.88;;;4.80;99.90;;;;;;4994385;28;20163;-88
2023/04/06 06:05:52;;;;;;;10.93;6.32;;;4.90;99.90;;;;;;4976274;28;20130;-88
2023/04/06 06:08:25;;;;;;;10.75;6.50;;;4.90;99.90;;;;;;4993287;28;22513;-88
2023/04/06 06:11:01;;;;;;;9.63;5.68;;;5.00;99.90;;;;;;4993092;28;20037;-87
2023/04/06 06:17:32;;;;;;;;;;;;;;;;;;;;;
2023/04/06 06:20:02;;;;;;;9.15;5.05;;;5.30;99.90;;;;;;4992009;28;20034;-88
2023/04/06 06:22:55;;;;;;;9.88;5.90;;;5.50;99.90;;;;;;4993761;28;20084;-88
2023/04/06 06:25:45;;;;;;;9.00;5.60;;;5.60;99.90;;;;;;4985900;28;22432;-88
2023/04/06 06:28:19;;;;;;;10.90;6.35;;;5.70;99.90;;;;;;5001857;28;20129;-88
2023/04/06 06:31:16;;;;;;;11.57;6.38;;;5.90;99.90;;;;;;5011857;28;20029;-88
2023/04/06 06:33:44;;;;;;;11.52;7.00;;;5.90;99.90;;;;;;4993381;28;20042;-89
2023/04/06 06:36:11;;;;;;;14.13;9.20;;;6.00;99.90;;;;;;4995477;28;20035;-89
2023/04/06 06:38:42;;;;;;;13.43;8.93;;;6.00;99.90;;;;;;4986820;28;20423;-86
2023/04/06 06:41:11;;;;;;;12.70;8.00;;;6.10;99.90;;;;;;4994631;28;20026;-89
2023/04/06 06:43:46;;;;;;;14.75;8.43;;;6.10;99.90;;;;;;4991194;28;20486;-89
2023/04/06 06:46:24;;;;;;;14.75;9.20;;;6.20;99.90;;;;;;4993563;28;20049;-90
2023/04/06 06:48:59;;;;;;;19.05;11.00;;;6.30;99.90;;;;;;4994915;28;20049;-89
2023/04/06 06:51:31;;;;;;;16.35;10.23;;;6.30;99.90;;;;;;4984547;28;20109;-89
2023/04/06 06:54:04;;;;;;;14.98;10.32;;;6.40;99.90;;;;;;5010033;28;20097;-89
2023/04/06 07:00:13;;;;;;;19.00;10.05;;;6.50;99.90;;;;;;4974644;28;20041;-90
2023/04/06 07:02:44;;;;;;;13.68;9.13;;;6.60;99.90;;;;;;5009129;28;20038;-90
2023/04/06 07:06:00;;;;;;;12.18;8.30;;;6.60;99.90;;;;;;4990212;28;20046;-91
2023/04/06 07:08:41;;;;;;;17.02;11.00;;;6.70;99.90;;;;;;4941659;28;20043;-91
2023/04/06 07:11:47;;;;;;;;;;;;;;;;;;;;;
2023/04/06 07:15:42;;;;;;;16.90;10.52;;;6.80;99.90;;;;;;5007718;28;20042;-91
2023/04/06 07:18:15;;;;;;;;;;;;;;;;;;;;;
2023/04/06 07:21:21;;;;;;;17.30;11.10;;;7.00;99.90;;;;;;4931929;29;19922;-90
2023/04/06 07:24:24;;;;;;;16.95;10.85;;;7.00;99.90;;;;;;4933370;29;20423;-90
2023/04/06 07:27:32;;;;;;;;;;;;;;;;;;;;;
2023/04/06 07:30:06;;;;;;;19.27;11.50;;;7.30;99.90;;;;;;4914324;29;20062;-92
2023/04/06 07:35:43;;;;;;;;;;;;;;;;;;;;;
2023/04/06 07:38:48;;;;;;;;;;;;;;;;;;;;;
2023/04/06 07:41:20;;;;;;;14.95;10.30;;;7.80;99.90;;;;;;4993868;28;20034;-91
2023/04/06 07:44:11;;;;;;;15.60;10.45;;;7.90;99.90;;;;;;4995417;28;20026;-91
2023/04/06 07:46:44;;;;;;;16.38;10.07;;;7.90;99.90;;;;;;5010616;28;20030;-90
2023/04/06 07:49:28;;;;;;;14.93;9.65;;;8.00;99.90;;;;;;5002830;28;20042;-87
2023/04/06 07:52:02;;;;;;;15.05;10.07;;;8.00;99.90;;;;;;4989182;28;20030;-89
2023/04/06 07:54:32;;;;;;;18.23;11.57;;;8.10;99.90;;;;;;4981900;28;20113;-89
2023/04/06 07:57:37;;;;;;;17.90;11.70;;;8.10;99.90;;;;;;5002225;28;20120;-90
2023/04/06 08:00:04;;;;;;;19.13;12.32;;;8.10;99.90;;;;;;4973100;28;20049;-89
2023/04/06 08:03:25;;;;;;;18.55;11.20;;;8.10;99.90;;;;;;4986218;28;20025;-90
2023/04/06 08:06:11;;;;;;;16.65;10.95;;;8.10;99.90;;;;;;4985582;28;20101;-89
2023/04/06 08:08:38;;;;;;;17.63;11.15;;;8.20;99.90;;;;;;5001802;28;20514;-89
2023/04/06 08:11:05;;;;;;;17.15;10.93;;;8.20;99.90;;;;;;4986362;28;20041;-89
2023/04/06 08:13:35;;;;;;;16.67;10.68;;;8.20;99.90;;;;;;4982554;28;20034;-90
2023/04/06 08:16:21;;;;;;;18.70;11.23;;;8.30;99.90;;;;;;4982133;28;20046;-89
2023/04/06 08:19:09;;;;;;;17.60;11.77;;;8.30;99.90;;;;;;5003150;28;20470;-87
2023/04/06 08:21:36;;;;;;;17.23;11.20;;;8.40;99.90;;;;;;4985272;28;20509;-87
2023/04/06 08:24:38;;;;;;;15.15;9.88;;;8.40;99.90;;;;;;4986588;28;20375;-86
2023/04/06 08:27:14;;;;;;;13.63;9.52;;;8.60;99.90;;;;;;4987022;28;20030;-87
2023/04/06 08:29:45;;;;;;;18.67;11.20;;;8.70;99.90;;;;;;5002421;28;20061;-86
2023/04/06 08:32:33;;;;;;;16.53;10.93;;;8.80;99.90;;;;;;4984861;28;20030;-88
2023/04/06 08:35:00;;;;;;;15.75;11.07;;;8.90;99.90;;;;;;4987536;28;20030;-86
2023/04/06 08:38:15;;;;;;;15.57;10.55;;;8.90;99.90;;;;;;4981602;28;20041;-88
2023/04/06 08:40:47;;;;;;;15.57;9.25;;;9.00;99.90;;;;;;4939888;28;20057;-87
2023/04/06 08:43:19;;;;;;;14.85;9.68;;;9.10;99.90;;;;;;4965817;28;20046;-88
2023/04/06 08:46:12;;;;;;;14.75;10.18;;;9.10;99.90;;;;;;4963099;28;20042;-87
2023/04/06 08:48:45;;;;;;;14.97;10.20;;;9.20;99.90;;;;;;4964989;28;20034;-88
2023/04/06 08:51:38;;;;;;;15.52;10.30;;;9.30;99.90;;;;;;4983300;28;20388;-87
2023/04/06 08:54:24;;;;;;;13.45;8.48;;;9.40;99.90;;;;;;4967933;28;20030;-87
2023/04/06 08:57:11;;;;;;;18.52;10.32;;;9.50;99.90;;;;;;4983883;28;20042;-87
2023/04/06 08:59:48;;;;;;;14.43;9.15;;;9.60;99.90;;;;;;4963402;28;20129;-87
2023/04/06 09:02:24;;;;;;;13.27;9.05;;;9.80;99.90;;;;;;4986045;28;20062;-88
2023/04/06 09:04:54;;;;;;;13.70;9.20;;;10.00;99.90;;;;;;4972953;28;20049;-87
2023/04/06 09:07:24;;;;;;;15.45;9.68;;;10.20;99.90;;;;;;4983391;28;20034;-89
2023/04/06 09:09:53;;;;;;;14.75;9.52;;;10.30;99.90;;;;;;4952346;28;20505;-87
2023/04/06 09:12:38;;;;;;;15.00;11.35;;;10.50;99.90;;;;;;4981252;28;20038;-88
2023/04/06 09:15:30;;;;;;;16.92;11.50;;;10.60;99.90;;;;;;4986588;28;20621;-88
2023/04/06 09:18:49;;;;;;;20.63;12.98;;;10.70;99.90;;;;;;4960500;28;20062;-88
2023/04/06 09:21:25;;;;;;;16.52;11.80;;;10.70;99.90;;;;;;5008021;28;20046;-88
2023/04/06 09:24:22;;;;;;;20.80;13.00;;;10.80;99.90;;;;;;4991236;28;20084;-87
2023/04/06 09:27:31;;;;;;;17.70;12.35;;;10.90;99.90;;;;;;4987466;28;20109;-87
2023/04/06 09:30:05;;;;;;;18.25;12.65;;;11.00;99.90;;;;;;5005768;28;20038;-89
2023/04/06 09:32:54;;;;;;;20.77;13.60;;;11.10;99.90;;;;;;5005546;28;20030;-88
2023/04/06 09:35:32;;;;;;;18.17;12.63;;;11.20;99.90;;;;;;4997635;28;20096;-88
2023/04/06 09:38:14;;;;;;;18.83;12.77;;;11.30;99.90;;;;;;5006264;28;20132;-88
2023/04/06 09:40:52;;;;;;;21.63;14.45;;;11.50;99.90;;;;;;4985533;28;20187;-88
2023/04/06 09:43:39;;;;;;;18.23;12.75;;;11.70;99.90;;;;;;4988254;28;20046;-87
2023/04/06 09:46:07;;;;;;;16.02;10.65;;;11.80;99.90;;;;;;4989361;28;20030;-89
2023/04/06 09:48:36;;;;;;;16.98;11.48;;;12.10;99.90;;;;;;4980826;28;20046;-87
2023/04/06 09:51:18;;;;;;;21.00;14.77;;;12.30;99.90;;;;;;4965572;28;20038;-87
2023/04/06 09:54:00;;;;;;;23.63;14.60;;;12.30;99.90;;;;;;4982484;28;20029;-88
2023/04/06 09:56:47;;;;;;;19.17;12.88;;;12.10;99.90;;;;;;4981446;28;20044;-88
2023/04/06 09:59:26;;;;;;;18.08;11.85;;;12.00;99.90;;;;;;5003103;28;20050;-87
2023/04/06 10:01:56;;;;;;;18.65;11.95;;;12.00;99.90;;;;;;4986903;28;20407;-87
2023/04/06 10:04:54;;;;;;;21.13;13.77;;;12.00;99.90;;;;;;5003307;28;20218;-88
2023/04/06 10:07:31;;;;;;;21.02;14.50;;;12.00;99.90;;;;;;4981109;28;20064;-87
2023/04/06 10:10:09;;;;;;;22.73;14.77;;;11.90;99.90;;;;;;4987110;28;20038;-86
2023/04/06 10:12:43;;;;;;;19.27;13.25;;;11.90;99.90;;;;;;4979747;28;20054;-87
2023/04/06 10:15:14;;;;;;;;;;;11.90;99.90;;;;;;4987722;28;20026;-86
2023/04/06 10:17:40;;;;;;;20.52;12.23;;;11.90;99.90;;;;;;4979681;28;20531;-88
2023/04/06 10:20:38;;;;;;;19.35;12.85;;;11.80;99.90;;;;;;4988941;28;20081;-87
2023/04/06 10:23:44;;;;;;;21.30;12.63;;;11.70;99.90;;;;;;4975005;28;20046;-86
2023/04/06 10:26:56;;;;;;;18.65;12.38;;;11.50;99.90;;;;;;4987976;28;20360;-87
2023/04/06 10:29:50;;;;;;;15.52;10.68;;;11.40;99.90;;;;;;5003996;28;20548;-88
2023/04/06 10:35:40;;;;;;;15.43;10.73;;;11.40;99.90;;;;;;4956652;28;20038;-89
2023/04/06 10:38:13;;;;;;;18.35;10.68;;;11.50;99.90;;;;;;4988760;28;20038;-88
2023/04/06 10:40:54;;;;;;;;;;;;;;;;;;;;;
2023/04/06 10:43:48;;;;;;;15.48;10.60;;;11.50;99.90;;;;;;4989647;28;20413;-88
2023/04/06 10:47:00;;;;;;;13.13;8.68;;;11.40;99.90;;;;;;5001817;28;20493;-89
2023/04/06 10:49:33;;;;;;;15.60;10.57;;;11.50;99.90;;;;;;4972853;28;20045;-87
2023/04/06 10:52:09;;;;;;;15.30;10.45;;;11.60;99.90;;;;;;4982784;28;20549;-89
2023/04/06 10:54:56;;;;;;;14.85;9.57;;;11.90;99.90;;;;;;4982476;28;20041;-88
2023/04/06 10:57:36;;;;;;;17.13;11.05;;;12.30;99.90;;;;;;4985798;28;20501;-87
2023/04/06 11:00:10;;;;;;;17.20;10.70;;;12.50;99.90;;;;;;4982905;28;20034;-88
2023/04/06 11:02:44;;;;;;;16.00;11.15;;;12.60;99.90;;;;;;4964862;28;20788;-89
2023/04/06 11:05:15;;;;;;;;;;;12.40;99.90;;;;;;5004154;28;20038;-89
2023/04/06 11:07:44;;;;;;;14.32;9.20;;;12.20;99.90;;;;;;5005494;28;20001;-87
2023/04/06 11:10:50;;;;;;;15.07;11.32;;;12.10;99.90;;;;;;4983513;28;20023;-88
2023/04/06 11:13:26;;;;;;;14.70;10.38;;;12.10;99.90;;;;;;4986489;28;20423;-88
2023/04/06 11:16:15;;;;;;;14.32;10.15;;;12.20;99.90;;;;;;4986596;28;20108;-86
2023/04/06 11:19:09;;;;;;;15.90;11.38;;;12.40;99.90;;;;;;4988560;28;20061;-87
2023/04/06 11:21:51;;;;;;;13.27;9.80;;;12.40;99.90;;;;;;4985692;28;20158;-88
2023/04/06 11:25:04;;;;;;;15.80;10.75;;;12.40;99.90;;;;;;4984727;28;20056;-87
2023/04/06 11:27:33;;;;;;;14.88;9.50;;;12.20;99.90;;;;;;4984766;28;20038;-87
2023/04/06 11:30:11;;;;;;;13.52;9.07;;;12.20;99.90;;;;;;4986824;28;20530;-89
2023/04/06 11:32:48;;;;;;;14.18;9.68;;;12.10;99.90;;;;;;4985082;28;20462;-88
2023/04/06 11:35:25;;;;;;;12.13;8.70;;;12.10;99.90;;;;;;4999522;28;20037;-88
2023/04/06 11:37:57;;;;;;;12.93;8.38;;;12.00;99.90;;;;;;4989370;28;20026;-88
2023/04/06 11:40:33;;;;;;;12.98;8.80;;;11.80;99.90;;;;;;4987917;28;20048;-87
2023/04/06 11:43:06;;;;;;;14.65;9.77;;;11.60;99.90;;;;;;4987928;28;20025;-87
2023/04/06 11:45:47;;;;;;;14.30;10.15;;;11.40;99.90;;;;;;4987986;28;20029;-88
2023/04/06 11:48:25;;;;;;;16.90;9.88;;;11.00;99.90;;;;;;4972108;28;20030;-87
2023/04/06 11:51:06;;;;;;;12.90;8.70;;;10.90;99.90;;;;;;4984139;28;20133;-89
2023/04/06 11:53:51;;;;;;;12.63;8.98;;;10.70;99.90;;;;;;4987840;28;20069;-87
2023/04/06 11:56:30;;;;;;;12.77;8.35;;;10.60;99.90;;;;;;4970461;28;20038;-88
2023/04/06 11:59:05;;;;;;;11.52;8.13;;;10.60;99.90;;;;;;4989620;28;20406;-87
2023/04/06 12:01:32;;;;;;;12.90;8.27;;;10.50;99.90;;;;;;4988957;28;20526;-87
2023/04/06 12:04:01;;;;;;;13.60;8.50;;;10.50;99.90;;;;;;4986659;28;20415;-86
2023/04/06 12:06:58;;;;;;;12.82;9.13;;;10.40;99.90;;;;;;4986935;28;20023;-88
2023/04/06 12:09:35;;;;;;;14.32;8.35;;;10.20;99.90;;;;;;4987004;28;20125;-87
2023/04/06 12:12:03;;;;;;;13.10;8.10;;;10.00;99.90;;;;;;4988130;28;20117;-87
2023/04/06 12:15:02;;;;;;;12.85;8.25;;;9.80;99.90;;;;;;4985535;28;20386;-87
2023/04/06 12:17:27;;;;;;;13.60;8.27;;;9.70;99.90;;;;;;5004187;28;20057;-88
2023/04/06 12:20:02;;;;;;;12.57;8.10;;;9.50;99.90;;;;;;4987593;28;20034;-87
2023/04/06 12:22:30;;;;;;;10.63;8.10;;;9.30;99.90;;;;;;5002069;28;20030;-87
2023/04/06 12:25:01;;;;;;;10.63;7.72;;;9.10;99.90;;;;;;4986012;28;20038;-88
2023/04/06 12:27:58;;;;;;;11.38;7.50;;;9.00;99.90;;;;;;4984129;28;20419;-86
2023/04/06 12:30:27;;;;;;;12.43;7.88;;;8.80;99.90;;;;;;4979558;28;20034;-86
2023/04/06 12:32:59;;;;;;;11.05;7.85;;;8.70;99.90;;;;;;4985209;28;20038;-86
2023/04/06 12:35:25;;;;;;;14.15;7.35;;;8.60;99.90;;;;;;4982005;28;20372;-84
2023/04/06 12:37:55;;;;;;;11.32;7.07;;;8.60;99.90;;;;;;4945670;28;20129;-85
2023/04/06 12:40:21;;;;;;;11.75;7.53;;;8.50;99.90;;;;;;4978702;28;22477;-85
2023/04/06 12:42:48;;;;;;;9.73;6.78;;;8.40;99.90;;;;;;4983605;28;20025;-85
2023/04/06 12:45:17;;;;;;;11.45;6.80;;;8.40;99.90;;;;;;4981968;28;20589;-85
2023/04/06 12:47:48;;;;;;;11.18;6.82;;;8.20;99.90;;;;;;4979211;28;20129;-85
2023/04/06 12:50:14;;;;;;;11.18;6.97;;;8.20;99.90;;;;;;4980082;28;20068;-84
2023/04/06 12:52:42;;;;;;;11.18;6.88;;;8.20;99.90;;;;;;4985226;28;20037;-85
2023/04/06 12:55:09;;;;;;;8.48;6.18;;;8.20;99.90;;;;;;4963113;28;20030;-83
2023/04/06 12:57:36;;;;;;;10.15;6.72;;;8.10;99.90;;;;;;4966119;28;20899;-87
2023/04/06 13:00:07;;;;;;;9.98;6.80;;;8.10;99.90;;;;;;4965086;28;20104;-84
2023/04/06 13:02:36;;;;;;;11.32;6.82;;;8.10;99.90;;;;;;4983848;28;20042;-86
2023/04/06 13:05:07;;;;;;;13.55;7.78;;;8.00;99.90;;;;;;4962620;28;20113;-86
2023/04/06 13:07:41;;;;;;;9.30;5.85;;;8.00;99.90;;;;;;4976293;28;20039;-85
2023/04/06 13:10:09;;;;;;;10.45;5.70;;;8.00;99.90;;;;;;4986472;28;20026;-85
2023/04/06 13:12:54;;;;;;;10.88;6.25;;;8.00;99.90;;;;;;4964090;28;20034;-85
2023/04/06 13:15:46;;;;;;;11.05;7.38;;;8.10;99.90;;;;;;4981636;28;20034;-86
2023/04/06 13:18:15;;;;;;;12.80;7.45;;;8.10;99.90;;;;;;4982284;28;20153;-86
2023/04/06 13:20:48;;;;;;;10.48;6.50;;;8.00;99.90;;;;;;4987226;28;20045;-86
2023/04/06 13:23:20;;;;;;;13.57;8.13;;;8.00;99.90;;;;;;4986198;28;20908;-85
2023/04/06 13:26:32;;;;;;;11.60;7.63;;;8.00;99.90;;;;;;4982363;28;20030;-86
2023/04/06 13:28:59;;;;;;;10.38;6.68;;;8.00;99.90;;;;;;4986311;28;20084;-86
2023/04/06 13:31:29;;;;;;;14.18;7.95;;;8.00;99.90;;;;;;4987660;28;20362;-87
2023/04/06 13:33:57;;;;;;;11.60;8.30;;;8.10;99.90;;;;;;4952477;28;20042;-86
2023/04/06 13:36:47;;;;;;;15.57;10.50;;;8.10;99.90;;;;;;4971226;28;20038;-86
2023/04/06 13:39:32;;;;;;;13.13;8.70;;;8.10;99.90;;;;;;4990152;28;20447;-86
2023/04/06 13:42:04;;;;;;;14.32;10.23;;;8.00;99.90;;;;;;4987068;28;20026;-86
2023/04/06 13:44:34;;;;;;;14.27;9.18;;;7.90;99.90;;;;;;4986531;28;20038;-87
2023/04/06 13:47:37;;;;;;;15.93;9.70;;;7.90;99.90;;;;;;4989809;28;20113;-89
2023/04/06 13:50:16;;;;;;;16.00;10.68;;;8.00;99.90;;;;;;5005028;28;20391;-87